Time;durP1;ratioP1;P1;durP2;ratioP2;P2;SDS_P1;SDS_P2;PMS_P1;PMS_P2;Temp;Humidity;BMP_temperature;BMP_pressure;BME280_temperature;BME280_humidity;BME280_pressure;Samples;Min_cycle;Max_cycle;Signal;HPM_P1;HPM_P2
2021/07/30 00:01:20;;;;;;;;;;;;;;;27.44;35.31;94479.09;2951938;40;19973;-79
2021/07/30 00:03:22;;;;;;;;;;;;;;;27.42;35.24;94475.84;2947356;40;19953;-80
2021/07/30 00:05:23;;;;;;;;;;;;;;;27.40;35.18;94478.81;2953773;40;20026;-79
2021/07/30 00:07:28;;;;;;;;;;;;;;;27.42;35.57;94470.47;2953036;40;20026;-79
2021/07/30 00:09:29;;;;;;;;;;;;;;;27.44;35.42;94479.88;2954764;40;19943;-79
2021/07/30 00:11:31;;;;;;;;;;;;;;;27.48;35.49;94477.47;2941589;40;19985;-80
2021/07/30 00:13:32;;;;;;;;;;;;;;;27.50;35.90;94467.25;2944306;40;20286;-80
2021/07/30 00:15:34;;;;;;;;;;;;;;;27.53;35.75;94469.38;2956568;40;20258;-81
2021/07/30 00:17:35;;;;;;;;;;;;;;;27.53;35.74;94477.47;2942360;40;19940;-80
2021/07/30 00:19:37;;;;;;;;;;;;;;;27.56;35.93;94472.34;2949309;40;20025;-79
2021/07/30 00:21:38;;;;;;;;;;;;;;;27.52;36.13;94467.78;2948323;40;20294;-79
2021/07/30 00:23:40;;;;;;;;;;;;;;;27.42;36.77;94470.47;2950162;40;20301;-79
2021/07/30 00:25:42;;;;;;;;;;;;;;;27.35;36.51;94468.88;2953164;40;19941;-79
2021/07/30 00:27:43;;;;;;;;;;;;;;;27.35;36.70;94476.94;2951581;40;19937;-78
2021/07/30 00:29:45;;;;;;;;;;;;;;;27.32;36.98;94474.78;2953182;40;19972;-79
2021/07/30 00:31:46;;;;;;;;;;;;;;;27.33;36.97;94462.16;2953090;40;19933;-79
2021/07/30 00:33:48;;;;;;;;;;;;;;;27.31;36.75;94459.72;2958147;40;20305;-78
2021/07/30 00:35:49;;;;;;;;;;;;;;;27.32;37.13;94458.66;2950967;40;19985;-79
2021/07/30 00:37:51;;;;;;;;;;;;;;;27.27;37.46;94469.41;2951247;40;20376;-79
2021/07/30 00:39:53;;;;;;;;;;;;;;;27.17;37.38;94456.75;2943839;40;19945;-79
2021/07/30 00:41:54;;;;;;;;;;;;;;;27.18;37.35;94465.63;2949984;40;19956;-68
2021/07/30 00:43:56;;;;;;;;;;;;;;;27.19;38.15;94464.56;2937093;40;20008;-69
2021/07/30 00:45:58;;;;;;;;;;;;;;;27.04;37.35;94476.09;2950796;40;19949;-69
2021/07/30 00:48:00;;;;;;;;;;;;;;;26.85;37.71;94467.75;2949560;40;19956;-68
2021/07/30 00:50:01;;;;;;;;;;;;;;;26.29;37.30;94478.31;2949999;40;19949;-69
2021/07/30 00:52:03;;;;;;;;;;;;;;;26.05;37.34;94476.06;2953056;40;20344;-69
2021/07/30 00:54:05;;;;;;;;;;;;;;;26.08;37.73;94469.34;2950973;40;20091;-69
2021/07/30 00:56:06;;;;;;;;;;;;;;;26.23;37.37;94471.31;2934541;40;20177;-82
2021/07/30 00:58:08;;;;;;;;;;;;;;;26.35;37.08;94470.00;2952829;40;20287;-79
2021/07/30 01:00:10;;;;;;;;;;;;;;;26.41;37.53;94475.38;2957419;40;20348;-78
2021/07/30 01:02:11;;;;;;;;;;;;;;;26.46;37.58;94473.53;2950766;40;19994;-79
2021/07/30 01:04:13;;;;;;;;;;;;;;;26.50;37.41;94476.47;2947080;40;19938;-79
2021/07/30 01:06:15;;;;;;;;;;;;;;;26.57;36.47;94481.66;2949808;40;20170;-80
2021/07/30 01:08:16;;;;;;;;;;;;;;;26.60;36.26;94486.50;2947204;40;20290;-81
2021/07/30 01:10:18;;;;;;;;;;;;;;;26.63;36.33;94480.59;2951648;40;19949;-80
2021/07/30 01:12:19;;;;;;;;;;;;;;;26.62;36.24;94478.97;2952643;40;19939;-80
2021/07/30 01:14:21;;;;;;;;;;;;;;;26.68;36.60;94480.63;2951579;40;20030;-80
2021/07/30 01:16:22;;;;;;;;;;;;;;;26.69;36.74;94480.31;2943234;40;20262;-79
2021/07/30 01:18:24;;;;;;;;;;;;;;;26.68;36.53;94475.25;2951563;40;19949;-80
2021/07/30 01:20:27;;;;;;;;;;;;;;;26.71;36.76;94472.00;2951111;40;19947;-81
2021/07/30 01:22:32;;;;;;;;;;;;;;;26.72;36.55;94476.31;2951465;40;20279;-79
2021/07/30 01:24:35;;;;;;;;;;;;;;;26.71;36.38;94474.69;2945409;40;19933;-80
2021/07/30 01:26:36;;;;;;;;;;;;;;;26.70;36.33;94470.41;2951711;40;19949;-80
2021/07/30 01:28:37;;;;;;;;;;;;;;;26.67;36.73;94470.91;2951561;40;20241;-78
2021/07/30 01:30:39;;;;;;;;;;;;;;;26.72;37.16;94474.44;2952140;40;19985;-80
2021/07/30 01:32:41;;;;;;;;;;;;;;;26.73;36.68;94477.94;2942518;40;19953;-79
2021/07/30 01:34:43;;;;;;;;;;;;;;;26.75;36.42;94473.09;2941743;40;19948;-79
2021/07/30 01:36:44;;;;;;;;;;;;;;;26.72;36.64;94469.06;2950322;40;20234;-79
2021/07/30 01:38:46;;;;;;;;;;;;;;;26.67;37.06;94465.53;2953277;40;20268;-79
2021/07/30 01:40:47;;;;;;;;;;;;;;;26.62;37.02;94463.66;2950716;40;19949;-79
2021/07/30 01:42:49;;;;;;;;;;;;;;;26.62;37.12;94468.22;2954431;40;19956;-79
2021/07/30 01:44:51;;;;;;;;;;;;;;;26.62;37.19;94463.66;2954514;40;20242;-80
2021/07/30 01:46:52;;;;;;;;;;;;;;;26.68;37.00;94467.19;2948743;40;20084;-79
2021/07/30 01:48:54;;;;;;;;;;;;;;;26.68;36.78;94464.50;2945886;40;20037;-80
2021/07/30 01:50:56;;;;;;;;;;;;;;;26.62;36.72;94462.88;2950385;40;19948;-78
2021/07/30 01:52:57;;;;;;;;;;;;;;;26.57;36.68;94460.16;2951672;40;19945;-79
2021/07/30 01:54:59;;;;;;;;;;;;;;;26.57;37.24;94460.16;2958153;40;20017;-80
2021/07/30 01:57:01;;;;;;;;;;;;;;;26.53;37.46;94459.84;2942963;40;19949;-78
2021/07/30 01:59:02;;;;;;;;;;;;;;;26.38;37.11;94460.63;2951065;40;20287;-78
2021/07/30 02:01:04;;;;;;;;;;;;;;;26.24;37.56;94470.22;2950346;40;19941;-78
2021/07/30 02:03:06;;;;;;;;;;;;;;;26.07;37.28;94465.88;2951028;40;19941;-80
2021/07/30 02:05:08;;;;;;;;;;;;;;;25.85;37.42;94463.28;2956558;40;19936;-82
2021/07/30 02:07:09;;;;;;;;;;;;;;;25.66;37.43;94460.25;2951338;40;19960;-80
2021/07/30 02:09:11;;;;;;;;;;;;;;;25.39;38.11;94471.06;2951590;40;20340;-79
2021/07/30 02:11:13;;;;;;;;;;;;;;;24.74;39.11;94467.53;2954337;40;20278;-80
2021/07/30 02:15:36;;;;;;;;;;;;;;;24.07;40.02;94472.13;2951139;40;19937;-79
2021/07/30 02:17:38;;;;;;;;;;;;;;;24.25;39.81;94473.66;2950965;40;19949;-79
2021/07/30 02:19:39;;;;;;;;;;;;;;;24.33;39.55;94475.13;2954437;40;19991;-80
2021/07/30 02:21:41;;;;;;;;;;;;;;;24.31;39.36;94474.56;2949877;40;20294;-79
2021/07/30 02:23:43;;;;;;;;;;;;;;;24.27;39.81;94470.75;2951281;40;19953;-79
2021/07/30 02:25:45;;;;;;;;;;;;;;;24.49;39.60;94474.22;2948428;40;20023;-80
2021/07/30 02:27:46;;;;;;;;;;;;;;;24.72;39.38;94470.47;2944658;40;20013;-79
2021/07/30 02:29:48;;;;;;;;;;;;;;;24.96;39.13;94467.47;2953246;40;19969;-80
2021/07/30 02:31:49;;;;;;;;;;;;;;;25.13;38.89;94475.41;2948707;40;20040;-79
2021/07/30 02:33:51;;;;;;;;;;;;;;;25.20;38.90;94469.84;2953010;40;19962;-78
2021/07/30 02:35:53;;;;;;;;;;;;;;;25.27;39.16;94478.47;2941618;40;19985;-79
2021/07/30 02:37:54;;;;;;;;;;;;;;;25.33;39.33;94478.25;2943100;40;19949;-78
2021/07/30 02:39:56;;;;;;;;;;;;;;;25.38;39.30;94479.34;2957225;40;20329;-78
2021/07/30 02:41:57;;;;;;;;;;;;;;;24.85;41.69;94485.31;2948401;40;20269;-80
2021/07/30 02:43:59;;;;;;;;;;;;;;;24.24;43.31;94489.97;2938071;40;20068;-80
2021/07/30 02:46:00;;;;;;;;;;;;;;;24.05;44.23;94487.63;2949931;40;20268;-78
2021/07/30 02:48:02;;;;;;;;;;;;;;;24.27;43.34;94482.25;2941764;40;19945;-79
2021/07/30 02:50:04;;;;;;;;;;;;;;;24.50;43.17;94488.44;2951961;40;19949;-80
2021/07/30 02:52:05;;;;;;;;;;;;;;;24.75;43.04;94490.56;2950336;40;19941;-79
2021/07/30 02:54:07;;;;;;;;;;;;;;;24.93;43.32;94492.09;2950576;40;19945;-80
2021/07/30 02:56:09;;;;;;;;;;;;;;;25.07;43.17;94484.44;2949877;40;20008;-80
2021/07/30 02:58:11;;;;;;;;;;;;;;;25.18;43.28;94488.81;2949319;40;19957;-79
2021/07/30 03:00:13;;;;;;;;;;;;;;;25.27;43.10;94498.03;2949033;40;19945;-79
2021/07/30 03:02:15;;;;;;;;;;;;;;;25.31;43.05;94491.09;2949525;40;19933;-77
2021/07/30 03:04:17;;;;;;;;;;;;;;;25.37;42.82;94491.97;2952133;40;19940;-79
2021/07/30 03:06:18;;;;;;;;;;;;;;;25.41;42.19;94490.38;2949743;40;20003;-78
2021/07/30 03:08:21;;;;;;;;;;;;;;;25.47;42.20;94486.69;2947303;40;19937;-79
2021/07/30 03:10:23;;;;;;;;;;;;;;;25.53;42.17;94488.34;2951548;40;19973;-79
2021/07/30 03:12:25;;;;;;;;;;;;;;;25.62;41.87;94493.19;2949929;40;19937;-79
2021/07/30 03:14:26;;;;;;;;;;;;;;;25.68;41.74;94493.00;2949896;40;20036;-80
2021/07/30 03:16:28;;;;;;;;;;;;;;;25.71;41.83;94495.16;2942742;40;19948;-79
2021/07/30 03:18:30;;;;;;;;;;;;;;;25.79;41.81;94495.72;2951488;40;20027;-79
2021/07/30 03:20:31;;;;;;;;;;;;;;;25.80;41.84;94494.69;2949888;40;19949;-79
2021/07/30 03:22:33;;;;;;;;;;;;;;;25.82;42.35;94498.72;2952756;40;19941;-78
2021/07/30 03:24:36;;;;;;;;;;;;;;;25.83;42.84;94494.16;2952351;40;19979;-79
2021/07/30 03:26:37;;;;;;;;;;;;;;;25.84;42.94;94496.56;2953812;40;19941;-78
2021/07/30 03:28:39;;;;;;;;;;;;;;;25.87;42.88;94495.25;2952573;40;19945;-79
2021/07/30 03:30:40;;;;;;;;;;;;;;;25.90;42.90;94494.78;2951311;40;19945;-79
2021/07/30 03:32:42;;;;;;;;;;;;;;;25.90;42.90;94492.09;2949545;40;19949;-79
2021/07/30 03:34:45;;;;;;;;;;;;;;;25.94;42.96;94496.69;2950575;40;19969;-70
2021/07/30 03:36:47;;;;;;;;;;;;;;;25.97;42.91;94503.41;2954508;40;19948;-68
2021/07/30 03:38:49;;;;;;;;;;;;;;;25.93;42.90;94500.41;2950352;40;20226;-68
2021/07/30 03:40:50;;;;;;;;;;;;;;;25.93;42.88;94500.41;2949459;40;19937;-69
2021/07/30 03:42:52;;;;;;;;;;;;;;;25.94;42.69;94504.72;2950034;40;20035;-68
2021/07/30 03:44:53;;;;;;;;;;;;;;;25.95;42.67;94502.84;2950256;40;19945;-69
2021/07/30 03:46:55;;;;;;;;;;;;;;;25.94;42.85;94509.25;2950093;40;20046;-69
2021/07/30 03:48:56;;;;;;;;;;;;;;;25.92;43.00;94512.22;2952965;40;20280;-70
2021/07/30 03:50:58;;;;;;;;;;;;;;;25.94;43.21;94510.09;2947794;40;20266;-67
2021/07/30 03:53:00;;;;;;;;;;;;;;;25.93;43.59;94505.78;2938980;40;20350;-68
2021/07/30 03:55:02;;;;;;;;;;;;;;;25.93;43.87;94505.78;2940374;40;19942;-68
2021/07/30 03:57:03;;;;;;;;;;;;;;;25.92;44.02;94509.53;2948978;40;19937;-68
2021/07/30 03:59:05;;;;;;;;;;;;;;;26.00;43.87;94508.22;2950158;40;19941;-68
2021/07/30 04:01:08;;;;;;;;;;;;;;;26.00;43.98;94507.44;2949424;40;19945;-69
2021/07/30 04:03:09;;;;;;;;;;;;;;;26.00;44.27;94499.38;2940909;40;19997;-69
2021/07/30 04:05:11;;;;;;;;;;;;;;;26.01;44.25;94501.00;2950899;40;20132;-69
2021/07/30 04:07:13;;;;;;;;;;;;;;;26.01;44.76;94501.00;2949467;40;20323;-68
2021/07/30 04:09:15;;;;;;;;;;;;;;;26.07;44.35;94505.31;2949998;40;21899;-69
2021/07/30 04:11:16;;;;;;;;;;;;;;;26.14;44.42;94501.34;2952288;40;20281;-69
2021/07/30 04:13:18;;;;;;;;;;;;;;;26.20;44.57;94498.66;2940859;40;19945;-68
2021/07/30 04:15:19;;;;;;;;;;;;;;;26.24;44.17;94502.44;2950431;40;20026;-68
2021/07/30 04:17:21;;;;;;;;;;;;;;;26.27;44.47;94505.41;2950976;40;19937;-69
2021/07/30 04:19:22;;;;;;;;;;;;;;;26.34;44.17;94510.53;2950343;40;20281;-70
2021/07/30 04:21:24;;;;;;;;;;;;;;;26.37;44.41;94510.00;2949655;40;19980;-69
2021/07/30 04:23:25;;;;;;;;;;;;;;;26.41;44.02;94516.47;2948477;40;20279;-69
2021/07/30 04:25:27;;;;;;;;;;;;;;;26.41;43.77;94510.31;2948825;40;19949;-69
2021/07/30 04:27:29;;;;;;;;;;;;;;;26.43;43.66;94513.53;2949417;40;20218;-68
2021/07/30 04:29:30;;;;;;;;;;;;;;;26.46;43.93;94513.03;2951220;40;20414;-69
2021/07/30 04:31:32;;;;;;;;;;;;;;;26.50;44.01;94511.41;2955680;40;20408;-70
2021/07/30 04:33:34;;;;;;;;;;;;;;;26.54;43.61;94505.25;2946496;40;19953;-69
2021/07/30 04:35:39;;;;;;;;;;;;;;;26.57;43.07;94509.31;2942056;40;20080;-69
2021/07/30 04:37:40;;;;;;;;;;;;;;;26.55;43.13;94506.88;2950414;40;20260;-67
2021/07/30 04:39:42;;;;;;;;;;;;;;;26.55;42.67;94509.56;2950586;40;19943;-68
2021/07/30 04:41:43;;;;;;;;;;;;;;;26.54;42.99;94509.81;2951084;40;19974;-69
2021/07/30 04:43:45;;;;;;;;;;;;;;;26.46;43.48;94510.34;2953874;40;19973;-68
2021/07/30 04:45:46;;;;;;;;;;;;;;;26.53;43.46;94516.25;2953332;40;20160;-70
2021/07/30 04:47:48;;;;;;;;;;;;;;;26.53;43.34;94513.56;2953673;40;20686;-68
2021/07/30 04:49:49;;;;;;;;;;;;;;;26.59;43.15;94515.25;2947956;40;20356;-69
2021/07/30 04:51:51;;;;;;;;;;;;;;;26.68;42.67;94515.53;2950058;40;19938;-68
2021/07/30 04:53:53;;;;;;;;;;;;;;;26.73;42.55;94510.97;2950835;40;20656;-68
2021/07/30 04:55:54;;;;;;;;;;;;;;;26.78;42.57;94510.19;2953116;40;20041;-70
2021/07/30 04:57:56;;;;;;;;;;;;;;;26.81;42.55;94519.59;2954882;40;19952;-69
2021/07/30 04:59:57;;;;;;;;;;;;;;;26.79;42.64;94513.69;2950689;40;19941;-69
2021/07/30 05:01:59;;;;;;;;;;;;;;;26.87;42.85;94508.59;2950402;40;19941;-69
2021/07/30 05:04:00;;;;;;;;;;;;;;;26.91;43.03;94516.91;2949198;40;19937;-70
2021/07/30 05:06:34;;;;;;;;;;;;;;;26.94;42.71;94524.47;2949744;40;19949;-71
2021/07/30 05:08:36;;;;;;;;;;;;;;;26.89;42.76;94525.28;2942453;40;19945;-68
2021/07/30 05:10:37;;;;;;;;;;;;;;;26.80;43.63;94526.03;2940905;40;20396;-70
2021/07/30 05:12:39;;;;;;;;;;;;;;;26.80;44.00;94518.78;2950981;40;19957;-69
2021/07/30 05:14:41;;;;;;;;;;;;;;;26.79;43.77;94517.19;2949713;40;20056;-68
2021/07/30 05:16:42;;;;;;;;;;;;;;;26.73;43.80;94523.59;2950280;40;19945;-68
2021/07/30 05:18:44;;;;;;;;;;;;;;;26.66;43.77;94523.06;2950550;40;20035;-69
2021/07/30 05:20:45;;;;;;;;;;;;;;;26.68;44.01;94524.41;2950071;40;20582;-68
2021/07/30 05:22:47;;;;;;;;;;;;;;;26.52;43.58;94528.91;2949613;40;19983;-68
2021/07/30 05:24:49;;;;;;;;;;;;;;;26.40;43.52;94532.88;2950541;40;20046;-68
2021/07/30 05:26:50;;;;;;;;;;;;;;;26.18;43.53;94528.47;2950915;40;20313;-67
2021/07/30 05:28:52;;;;;;;;;;;;;;;26.23;44.11;94535.75;2950728;40;19953;-68
2021/07/30 05:30:57;;;;;;;;;;;;;;;26.43;43.56;94532.34;2949461;40;19977;-65
2021/07/30 05:32:59;;;;;;;;;;;;;;;26.43;43.27;94527.75;2956347;40;20163;-79
2021/07/30 05:35:00;;;;;;;;;;;;;;;26.53;43.17;94530.50;2951389;40;20168;-80
2021/07/30 05:37:02;;;;;;;;;;;;;;;26.68;42.83;94537.03;2950382;40;20015;-79
2021/07/30 05:39:04;;;;;;;;;;;;;;;26.74;42.66;94531.41;2951618;40;19940;-80
2021/07/30 05:41:05;;;;;;;;;;;;;;;26.89;42.74;94538.72;2949848;40;20339;-81
2021/07/30 05:43:07;;;;;;;;;;;;;;;27.06;42.54;94537.66;2950902;40;20023;-85
2021/07/30 05:45:08;;;;;;;;;;;;;;;27.18;42.69;94527.47;2948207;40;19945;-79
2021/07/30 05:47:10;;;;;;;;;;;;;;;27.28;42.24;94535.56;2954777;40;19951;-82
2021/07/30 05:49:11;;;;;;;;;;;;;;;27.25;42.61;94533.41;2943485;40;19952;-85
2021/07/30 05:51:13;;;;;;;;;;;;;;;27.12;42.42;94531.22;2949482;40;20013;-70
2021/07/30 05:53:15;;;;;;;;;;;;;;;27.04;42.79;94529.88;2950836;40;19933;-68
2021/07/30 05:55:16;;;;;;;;;;;;;;;27.09;42.86;94529.88;2950229;40;20298;-68
2021/07/30 05:57:18;;;;;;;;;;;;;;;27.20;42.58;94527.19;2949119;40;19989;-69
2021/07/30 05:59:20;;;;;;;;;;;;;;;27.34;42.29;94533.69;2953486;40;20026;-80
2021/07/30 06:01:21;;;;;;;;;;;;;;;27.38;42.25;94526.69;2954208;40;20286;-69
2021/07/30 06:03:23;;;;;;;;;;;;;;;27.13;43.03;94535.53;2940435;40;20024;-70
2021/07/30 06:05:25;;;;;;;;;;;;;;;26.95;43.20;94532.28;2941179;40;19973;-70
2021/07/30 06:07:27;;;;;;;;;;;;;;;26.82;43.72;94524.69;2949097;40;19973;-69
2021/07/30 06:09:28;;;;;;;;;;;;;;;26.80;43.71;94534.91;2941505;40;19961;-69
2021/07/30 06:11:30;;;;;;;;;;;;;;;26.94;43.64;94525.28;2949716;40;20423;-70
2021/07/30 06:13:31;;;;;;;;;;;;;;;27.04;43.17;94519.13;2949870;40;19949;-71
2021/07/30 06:15:33;;;;;;;;;;;;;;;27.04;42.64;94519.13;2941105;40;19952;-69
2021/07/30 06:17:36;;;;;;;;;;;;;;;27.18;42.02;94524.78;2950155;40;19937;-69
2021/07/30 06:19:38;;;;;;;;;;;;;;;27.38;42.07;94526.69;2949179;40;19943;-69
2021/07/30 06:21:39;;;;;;;;;;;;;;;27.58;41.99;94526.69;2940142;40;20032;-68
2021/07/30 06:23:43;;;;;;;;;;;;;;;27.80;41.63;94519.44;2954810;40;20349;-68
2021/07/30 06:25:45;;;;;;;;;;;;;;;27.93;40.58;94518.88;2942624;40;20329;-68
2021/07/30 06:27:46;;;;;;;;;;;;;;;28.09;40.54;94522.34;2955709;40;19961;-69
2021/07/30 06:29:48;;;;;;;;;;;;;;;28.19;39.81;94520.44;2947033;40;20034;-69
2021/07/30 06:31:49;;;;;;;;;;;;;;;28.28;40.05;94519.88;2941164;40;20101;-69
2021/07/30 06:33:51;;;;;;;;;;;;;;;28.32;39.29;94518.25;2950938;40;19945;-69
2021/07/30 06:35:52;;;;;;;;;;;;;;;28.02;39.64;94525.31;2940143;40;20061;-70
2021/07/30 06:37:54;;;;;;;;;;;;;;;27.56;40.00;94523.47;2948913;40;20028;-69
2021/07/30 06:39:55;;;;;;;;;;;;;;;27.50;39.70;94531.81;2941344;40;20148;-69
2021/07/30 06:41:57;;;;;;;;;;;;;;;27.37;40.18;94517.81;2950628;40;19937;-69
2021/07/30 06:43:58;;;;;;;;;;;;;;;27.31;41.04;94528.84;2950816;40;19945;-69
2021/07/30 06:46:00;;;;;;;;;;;;;;;27.63;40.78;94520.50;2951649;40;19941;-69
2021/07/30 06:48:02;;;;;;;;;;;;;;;27.76;39.96;94522.63;2949084;40;19937;-71
2021/07/30 06:50:04;;;;;;;;;;;;;;;27.78;40.03;94522.38;2947976;40;19945;-69
2021/07/30 06:52:07;;;;;;;;;;;;;;;27.81;39.56;94521.03;2949468;40;20075;-70
2021/07/30 06:54:08;;;;;;;;;;;;;;;27.68;39.78;94519.69;2954110;40;19955;-69
2021/07/30 06:56:10;;;;;;;;;;;;;;;27.66;40.23;94525.38;2942995;40;20290;-69
2021/07/30 06:58:16;;;;;;;;;;;;;;;27.84;39.97;94515.91;2952905;40;20022;-70
2021/07/30 07:00:18;;;;;;;;;;;;;;;28.11;39.53;94512.09;2947732;40;20031;-69
2021/07/30 07:02:19;;;;;;;;;;;;;;;28.41;38.99;94515.78;2949435;40;20008;-71
2021/07/30 07:04:21;;;;;;;;;;;;;;;28.68;38.98;94510.06;2945485;40;19964;-67
2021/07/30 07:06:23;;;;;;;;;;;;;;;28.91;38.54;94522.03;2949811;40;20031;-69
2021/07/30 07:08:25;;;;;;;;;;;;;;;28.94;38.50;94514.22;2945835;40;19953;-70
2021/07/30 07:10:26;;;;;;;;;;;;;;;28.65;38.91;94518.66;2950456;40;19933;-69
2021/07/30 07:12:28;;;;;;;;;;;;;;;28.46;38.98;94516.59;2949821;40;19952;-70
2021/07/30 07:14:30;;;;;;;;;;;;;;;28.51;38.96;94502.31;2949694;40;19948;-70
2021/07/30 07:16:32;;;;;;;;;;;;;;;28.11;38.18;94512.09;2945623;40;19960;-70
2021/07/30 07:18:34;;;;;;;;;;;;;;;28.28;38.38;94514.47;2949669;40;19953;-70
2021/07/30 07:20:36;;;;;;;;;;;;;;;28.43;38.28;94508.25;2946996;40;19945;-69
2021/07/30 07:22:37;;;;;;;;;;;;;;;28.44;37.53;94507.13;2945676;40;19945;-69
2021/07/30 07:24:39;;;;;;;;;;;;;;;28.56;37.79;94513.06;2950620;40;20060;-69
2021/07/30 07:26:41;;;;;;;;;;;;;;;28.40;37.78;94517.69;2944788;40;20031;-68
2021/07/30 07:28:44;;;;;;;;;;;;;;;28.41;37.55;94508.50;2950538;40;20370;-69
2021/07/30 07:30:47;;;;;;;;;;;;;;;28.43;37.79;94506.34;2946999;40;20056;-69
2021/07/30 07:32:48;;;;;;;;;;;;;;;28.75;37.42;94518.63;2947794;40;19949;-68
2021/07/30 07:34:51;;;;;;;;;;;;;;;28.84;37.15;94518.84;2948881;40;19945;-70
2021/07/30 07:36:53;;;;;;;;;;;;;;;28.97;37.28;94508.28;2949362;40;19937;-69
2021/07/30 07:38:55;;;;;;;;;;;;;;;29.03;37.10;94502.84;2945603;40;19945;-69
2021/07/30 07:40:56;;;;;;;;;;;;;;;29.07;37.17;94510.09;2952977;40;20292;-81
2021/07/30 07:42:58;;;;;;;;;;;;;;;29.35;37.28;94502.38;2952390;40;19956;-80
2021/07/30 07:45:01;;;;;;;;;;;;;;;29.57;36.50;94502.72;2953737;40;20034;-69
2021/07/30 07:47:02;;;;;;;;;;;;;;;29.76;36.10;94502.03;2950893;40;19958;-70
2021/07/30 07:49:04;;;;;;;;;;;;;;;29.85;35.48;94497.63;2950279;40;19941;-69
2021/07/30 07:51:05;;;;;;;;;;;;;;;29.82;35.65;94492.81;2948504;40;19941;-69
2021/07/30 07:53:13;;;;;;;;;;;;;;;29.82;35.80;94492.81;2954910;40;20317;-70
2021/07/30 07:55:15;;;;;;;;;;;;;;;29.80;35.93;94500.41;2949647;40;19941;-69
2021/07/30 07:57:16;;;;;;;;;;;;;;;29.83;35.48;94497.09;2950790;40;19959;-70
2021/07/30 07:59:18;;;;;;;;;;;;;;;30.02;35.36;94497.19;2942207;40;20440;-69
2021/07/30 08:01:19;;;;;;;;;;;;;;;30.07;35.09;94494.44;2951825;40;19969;-70
2021/07/30 08:03:21;;;;;;;;;;;;;;;30.15;34.94;94483.00;2951524;40;20201;-70
2021/07/30 08:05:26;;;;;;;;;;;;;;;30.14;34.81;94486.81;2951368;40;20023;-70
2021/07/30 08:07:27;;;;;;;;;;;;;;;30.06;34.95;94489.34;2948528;40;20404;-70
2021/07/30 08:09:29;;;;;;;;;;;;;;;30.24;34.94;94490.47;2951578;40;20309;-70
2021/07/30 08:11:31;;;;;;;;;;;;;;;30.40;34.59;94486.53;2958194;40;20320;-70
2021/07/30 08:13:32;;;;;;;;;;;;;;;30.33;34.23;94488.78;2954492;40;20254;-81
2021/07/30 08:15:34;;;;;;;;;;;;;;;30.31;34.29;94491.78;2951901;40;20031;-82
2021/07/30 08:17:36;;;;;;;;;;;;;;;30.40;34.37;94491.94;2950259;40;19933;-82
2021/07/30 08:19:38;;;;;;;;;;;;;;;30.58;33.72;94488.47;2950601;40;19945;-80
2021/07/30 08:21:39;;;;;;;;;;;;;;;30.64;33.29;94486.50;2951368;40;20031;-79
2021/07/30 08:23:41;;;;;;;;;;;;;;;30.66;33.36;94483.50;2951103;40;19943;-81
2021/07/30 08:25:42;;;;;;;;;;;;;;;30.62;33.66;94486.78;2950414;40;19937;-81
2021/07/30 08:27:44;;;;;;;;;;;;;;;30.65;33.70;94481.88;2958320;40;20123;-83
2021/07/30 08:29:45;;;;;;;;;;;;;;;30.80;33.07;94474.41;2951969;40;20251;-79
2021/07/30 08:31:47;;;;;;;;;;;;;;;30.96;32.68;94483.13;2951491;40;20008;-81
2021/07/30 08:33:49;;;;;;;;;;;;;;;30.95;33.07;94476.09;2952181;40;19941;-83
2021/07/30 08:35:52;;;;;;;;;;;;;;;30.85;32.71;94472.69;2950735;40;20246;-80
2021/07/30 08:37:53;;;;;;;;;;;;;;;30.38;33.50;94478.72;2951662;40;20200;-79
2021/07/30 08:39:59;;;;;;;;;;;;;;;30.57;33.34;94470.66;2947206;40;20318;-81
2021/07/30 08:42:01;;;;;;;;;;;;;;;30.92;32.93;94467.78;2942823;40;19944;-80
2021/07/30 08:44:03;;;;;;;;;;;;;;;31.26;32.86;94462.09;2950757;40;20039;-78
2021/07/30 08:46:05;;;;;;;;;;;;;;;31.55;32.09;94458.41;2953824;40;19990;-79
2021/07/30 08:48:06;;;;;;;;;;;;;;;31.76;32.03;94456.16;2952355;40;19993;-80
2021/07/30 08:50:08;;;;;;;;;;;;;;;31.97;31.63;94448.47;2947263;40;20350;-82
2021/07/30 08:52:11;;;;;;;;;;;;;;;32.08;31.40;94444.47;2950296;40;19961;-83
2021/07/30 08:54:15;;;;;;;;;;;;;;;32.17;31.26;94445.38;2951325;40;20026;-80
2021/07/30 08:56:17;;;;;;;;;;;;;;;31.98;30.97;94442.75;2950098;40;19945;-80
2021/07/30 08:58:19;;;;;;;;;;;;;;;31.95;31.55;94432.50;2958164;40;19953;-80
2021/07/30 09:00:21;;;;;;;;;;;;;;;32.17;31.15;94433.72;2953074;40;20067;-81
2021/07/30 09:02:22;;;;;;;;;;;;;;;32.43;30.32;94434.00;2950128;40;20676;-81
2021/07/30 09:04:28;;;;;;;;;;;;;;;32.59;30.03;94438.03;2951612;40;20009;-81
2021/07/30 09:06:29;;;;;;;;;;;;;;;32.65;29.68;94433.28;2949508;40;20026;-80
2021/07/30 09:08:31;;;;;;;;;;;;;;;32.80;28.81;94427.53;2951773;40;19956;-80
2021/07/30 09:10:35;;;;;;;;;;;;;;;32.85;29.37;94432.03;2941529;40;20401;-69
2021/07/30 09:12:38;;;;;;;;;;;;;;;32.43;30.00;94420.44;2950519;40;19952;-69
2021/07/30 09:14:44;;;;;;;;;;;;;;;32.15;29.69;94415.06;2958068;40;19973;-70
2021/07/30 09:16:49;;;;;;;;;;;;;;;32.20;29.63;94411.44;2953887;40;19945;-70
2021/07/30 09:18:51;;;;;;;;;;;;;;;32.49;29.51;94413.81;2951041;40;19941;-69
2021/07/30 09:20:53;;;;;;;;;;;;;;;32.45;29.62;94412.81;2949612;40;19937;-69
2021/07/30 09:22:55;;;;;;;;;;;;;;;32.49;29.44;94402.97;2950890;40;19949;-69
2021/07/30 09:24:59;;;;;;;;;;;;;;;32.58;27.47;94403.09;2950533;40;20026;-70
2021/07/30 09:27:01;;;;;;;;;;;;;;;32.78;28.13;94399.91;2946104;40;20035;-71
2021/07/30 09:29:06;;;;;;;;;;;;;;;32.78;26.91;94408.06;2951029;40;20104;-69
2021/07/30 09:31:08;;;;;;;;;;;;;;;32.75;27.49;94402.44;2948921;40;19945;-70
2021/07/30 09:33:09;;;;;;;;;;;;;;;32.81;27.56;94393.88;2950723;40;20036;-69
2021/07/30 09:35:13;;;;;;;;;;;;;;;32.82;26.66;94400.09;2949442;40;19945;-72
2021/07/30 09:37:18;;;;;;;;;;;;;;;32.96;26.13;94398.13;2950253;40;20353;-70
2021/07/30 09:39:21;;;;;;;;;;;;;;;33.07;25.99;94392.50;2951397;40;19964;-73
2021/07/30 09:41:23;;;;;;;;;;;;;;;33.21;26.17;94391.34;2952749;40;19957;-81
2021/07/30 09:43:25;;;;;;;;;;;;;;;33.20;26.82;94391.63;2943617;40;19984;-81
2021/07/30 09:45:33;;;;;;;;;;;;;;;33.01;25.31;94389.06;2950092;40;19942;-81
2021/07/30 09:47:45;;;;;;;;;;;;;;;32.88;25.34;94381.78;2951304;40;19933;-82
2021/07/30 09:49:47;;;;;;;;;;;;;;;33.08;25.17;94381.31;2948565;40;19949;-80
2021/07/30 09:51:48;;;;;;;;;;;;;;;33.18;25.17;94391.13;2953369;40;19949;-84
2021/07/30 09:53:50;;;;;;;;;;;;;;;33.09;24.77;94384.84;2950348;40;20300;-81
2021/07/30 09:55:52;;;;;;;;;;;;;;;33.28;24.69;94381.94;2942227;40;19999;-81
2021/07/30 09:57:53;;;;;;;;;;;;;;;33.54;24.36;94380.16;2949984;40;20317;-82
2021/07/30 09:59:55;;;;;;;;;;;;;;;33.65;23.85;94378.00;2950333;40;20262;-82
2021/07/30 10:01:57;;;;;;;;;;;;;;;33.88;24.30;94377.94;2946446;40;19944;-82
2021/07/30 10:03:59;;;;;;;;;;;;;;;33.91;24.08;94372.69;2950357;40;19944;-84
2021/07/30 10:06:01;;;;;;;;;;;;;;;33.94;24.14;94358.44;2950735;40;20003;-81
2021/07/30 10:08:03;;;;;;;;;;;;;;;33.80;24.03;94371.38;2949909;40;20229;-82
2021/07/30 10:12:12;;;;;;;;;;;;;;;33.78;24.02;94360.81;2945176;40;19942;-71
2021/07/30 10:14:14;;;;;;;;;;;;;;;33.83;23.42;94363.38;2943897;40;20159;-70
2021/07/30 10:16:16;;;;;;;;;;;;;;;34.11;23.49;94359.63;2948731;40;20160;-69
2021/07/30 10:18:19;;;;;;;;;;;;;;;34.13;23.33;94357.44;2949361;40;19949;-70
2021/07/30 10:20:21;;;;;;;;;;;;;;;34.12;23.06;94353.91;2957020;40;20062;-69
2021/07/30 10:22:22;;;;;;;;;;;;;;;34.00;23.01;94353.69;2949692;40;19937;-70
2021/07/30 10:24:24;;;;;;;;;;;;;;;34.21;23.05;94360.16;2948884;40;20023;-69
2021/07/30 10:26:26;;;;;;;;;;;;;;;34.12;23.98;94353.91;2942893;40;19948;-70
2021/07/30 10:28:29;;;;;;;;;;;;;;;34.06;23.69;94345.06;2945912;40;20000;-70
2021/07/30 10:30:51;;;;;;;;;;;;;;;34.08;23.73;94344.75;2950772;40;19951;-69
2021/07/30 10:32:56;;;;;;;;;;;;;;;34.13;23.43;94343.84;2949818;40;20038;-70
2021/07/30 10:34:58;;;;;;;;;;;;;;;34.35;23.17;94343.69;2950388;40;19960;-69
2021/07/30 10:36:59;;;;;;;;;;;;;;;34.61;22.84;94337.47;2949390;40;19995;-70
2021/07/30 10:39:07;;;;;;;;;;;;;;;34.68;22.45;94332.41;2951012;40;20167;-81
2021/07/30 10:41:09;;;;;;;;;;;;;;;34.51;22.04;94333.16;2952097;40;20072;-79